Time;durP1;ratioP1;P1;durP2;ratioP2;P2;SDS_P1;SDS_P2;PMS_P1;PMS_P2;Temp;Humidity;BMP_temperature;BMP_pressure;BME280_temperature;BME280_humidity;BME280_pressure;Samples;Min_cycle;Max_cycle;Signal;HPM_P1;HPM_P2
2022/08/22 00:01:18;;;;;;;0.00;0.00;;;;;;;14.44;96.79;101556.22;5021254;28;20052;-70
2022/08/22 00:03:55;;;;;;;0.10;0.10;;;;;;;14.43;96.79;101554.53;5010432;28;20520;-70
2022/08/22 00:06:30;;;;;;;0.00;0.00;;;;;;;14.47;97.10;101561.38;5025085;28;20029;-70
2022/08/22 00:09:03;;;;;;;0.00;0.00;;;;;;;14.44;96.66;101557.09;5029370;28;20037;-70
2022/08/22 00:11:54;;;;;;;0.10;0.10;;;;;;;14.43;97.12;101560.78;5023975;28;20061;-70
2022/08/22 00:14:43;;;;;;;0.00;0.00;;;;;;;14.39;97.01;101543.13;5021390;28;20119;-70
2022/08/22 00:17:27;;;;;;;0.00;0.00;;;;;;;14.47;96.73;101553.28;5022777;28;20127;-70
2022/08/22 00:20:12;;;;;;;0.10;0.10;;;;;;;14.52;96.51;101557.34;5029984;28;20671;-70
2022/08/22 00:22:48;;;;;;;;;;;;;;;14.33;97.83;101552.59;5023086;28;20472;-70
2022/08/22 00:25:30;;;;;;;0.03;0.03;;;;;;;14.33;97.91;101563.41;5025418;28;19963;-70
2022/08/22 00:28:00;;;;;;;0.00;0.00;;;;;;;14.36;98.21;101559.56;5026715;28;20116;-70
2022/08/22 00:30:26;;;;;;;0.00;0.00;;;;;;;14.31;98.19;101554.56;5021664;28;20075;-70
2022/08/22 00:32:57;;;;;;;0.00;0.00;;;;;;;14.44;97.77;101559.81;5017647;28;20026;-70
2022/08/22 00:35:28;;;;;;;0.00;0.00;;;;;;;14.55;97.05;101559.78;5020456;28;20091;-70
2022/08/22 00:38:20;;;;;;;0.10;0.10;;;;;;;14.59;96.28;101556.78;5018982;28;20376;-70
2022/08/22 00:41:05;;;;;;;0.10;0.10;;;;;;;14.58;96.31;101558.66;5017172;28;20029;-70
2022/08/22 00:43:48;;;;;;;0.00;0.00;;;;;;;14.55;96.35;101548.09;5012004;28;20324;-70
2022/08/22 00:46:19;;;;;;;0.00;0.00;;;;;;;14.62;96.17;101556.53;5021028;28;20384;-70
2022/08/22 00:49:09;;;;;;;0.00;0.00;;;;;;;14.64;96.30;101558.16;5023996;28;20021;-70
2022/08/22 00:51:53;;;;;;;0.00;0.00;;;;;;;14.55;96.40;101554.38;5025131;28;20135;-70
2022/08/22 00:54:40;;;;;;;0.00;0.00;;;;;;;14.51;96.58;101562.84;5023620;28;20033;-70
2022/08/22 00:57:30;;;;;;;0.00;0.00;;;;;;;14.47;97.53;101564.97;5020540;28;20029;-70
2022/08/22 01:00:13;;;;;;;0.10;0.10;;;;;;;14.47;97.37;101562.25;5020512;28;20047;-70
2022/08/22 01:03:00;;;;;;;0.00;0.00;;;;;;;14.40;97.63;101561.91;5020824;28;20034;-70
2022/08/22 01:05:46;;;;;;;0.03;0.03;;;;;;;14.40;97.93;101563.75;5025185;28;20030;-70
2022/08/22 01:08:33;;;;;;;0.00;0.00;;;;;;;14.39;98.36;101571.00;5021730;28;22275;-70
2022/08/22 01:11:14;;;;;;;0.00;0.00;;;;;;;14.47;98.51;101569.47;5024460;28;20660;-70
2022/08/22 01:13:59;;;;;;;0.00;0.00;;;;;;;14.38;97.99;101552.19;5023363;28;20112;-70
2022/08/22 01:16:34;;;;;;;0.10;0.10;;;;;;;14.49;98.42;101572.91;5026313;28;20759;-70
2022/08/22 01:19:28;;;;;;;0.10;0.10;;;;;;;14.51;98.13;101563.72;5023161;28;20017;-70
2022/08/22 01:22:31;;;;;;;0.10;0.10;;;;;;;14.51;98.46;101562.84;5022666;28;20029;-70
2022/08/22 01:25:27;;;;;;;0.00;0.00;;;;;;;14.53;98.50;101569.84;5022893;28;20065;-70
2022/08/22 01:28:23;;;;;;;0.00;0.00;;;;;;;14.57;98.75;101572.31;5028126;28;20063;-70
2022/08/22 01:31:26;;;;;;;0.00;0.00;;;;;;;14.58;99.00;101568.59;5021595;28;20040;-70
2022/08/22 01:34:14;;;;;;;0.00;0.00;;;;;;;14.58;99.61;101572.16;5025201;28;20059;-70
2022/08/22 01:36:55;;;;;;;0.00;0.00;;;;;;;14.63;99.57;101578.06;5025623;28;20472;-70
2022/08/22 01:39:48;;;;;;;0.00;0.00;;;;;;;14.69;100.00;101580.28;5023705;28;20059;-70
2022/08/22 01:42:39;;;;;;;0.00;0.00;;;;;;;14.72;99.73;101576.44;5019496;28;20045;-70
2022/08/22 01:45:23;;;;;;;0.00;0.00;;;;;;;14.75;100.00;101578.03;5028018;28;20087;-70
2022/08/22 01:47:54;;;;;;;0.00;0.00;;;;;;;14.74;99.96;101569.06;5021136;28;20038;-70
2022/08/22 01:50:39;;;;;;;0.00;0.00;;;;;;;14.76;100.00;101577.91;5030006;28;20018;-70
2022/08/22 01:53:41;;;;;;;0.00;0.00;;;;;;;14.77;100.00;101570.66;5024066;28;20033;-70
2022/08/22 01:56:13;;;;;;;0.03;0.03;;;;;;;14.80;100.00;101564.97;5025389;28;20496;-70
2022/08/22 01:59:00;;;;;;;0.00;0.00;;;;;;;14.84;100.00;101564.59;5023718;28;20106;-70
2022/08/22 02:01:51;;;;;;;0.00;0.00;;;;;;;14.82;100.00;101566.59;5021122;28;20495;-70
2022/08/22 02:04:38;;;;;;;0.00;0.00;;;;;;;14.79;100.00;101560.56;5022653;28;20033;-70
2022/08/22 02:07:41;;;;;;;0.00;0.00;;;;;;;14.75;100.00;101565.38;5024347;28;20021;-70
2022/08/22 02:10:37;;;;;;;0.00;0.00;;;;;;;14.71;100.00;101555.81;5021660;28;20025;-70
2022/08/22 02:13:18;;;;;;;0.00;0.00;;;;;;;14.73;100.00;101561.94;5022792;28;20056;-70
2022/08/22 02:15:49;;;;;;;0.05;0.05;;;;;;;14.74;100.00;101562.78;5024437;28;20022;-70
2022/08/22 02:18:30;;;;;;;0.00;0.00;;;;;;;14.62;100.00;101552.00;5017356;28;20037;-70
2022/08/22 02:21:39;;;;;;;0.10;0.10;;;;;;;14.73;100.00;101556.53;5023795;28;20159;-70
2022/08/22 02:24:18;;;;;;;0.00;0.00;;;;;;;14.76;100.00;101560.81;5021397;28;20613;-70
2022/08/22 02:27:03;;;;;;;0.00;0.00;;;;;;;14.77;100.00;101552.59;5026429;28;20119;-70
2022/08/22 02:30:03;;;;;;;0.08;0.08;;;;;;;14.81;100.00;101558.59;5030707;28;20383;-70
2022/08/22 02:32:42;;;;;;;0.10;0.10;;;;;;;14.55;100.00;101507.56;5026923;28;20027;-70
2022/08/22 02:35:26;;;;;;;0.00;0.00;;;;;;;14.77;100.00;101541.78;5029877;28;20491;-70
2022/08/22 02:38:02;;;;;;;0.00;0.00;;;;;;;14.77;100.00;101540.91;5023740;28;20488;-70
2022/08/22 02:40:50;;;;;;;0.10;0.10;;;;;;;14.78;100.00;101534.53;5031484;28;20024;-70
2022/08/22 02:43:19;;;;;;;0.10;0.10;;;;;;;14.78;100.00;101538.09;5021084;28;20032;-70
2022/08/22 02:45:55;;;;;;;0.00;0.00;;;;;;;14.78;100.00;101539.94;5030077;28;20025;-70
2022/08/22 02:48:41;;;;;;;0.00;0.00;;;;;;;14.74;100.00;101538.47;5027153;28;20434;-70
2022/08/22 02:51:10;;;;;;;0.00;0.00;;;;;;;14.72;100.00;101535.03;5027643;28;20040;-70
2022/08/22 02:53:44;;;;;;;0.00;0.00;;;;;;;14.70;100.00;101525.22;5024188;28;20066;-70
2022/08/22 02:56:10;;;;;;;0.00;0.00;;;;;;;14.70;100.00;101529.78;5017458;28;20108;-70
2022/08/22 02:59:16;;;;;;;0.03;0.03;;;;;;;14.72;100.00;101527.81;5029882;28;20112;-70
2022/08/22 03:01:44;;;;;;;0.00;0.00;;;;;;;14.70;100.00;101513.56;5003694;28;20045;-70
2022/08/22 03:04:21;;;;;;;0.00;0.00;;;;;;;14.78;100.00;101531.81;5029779;28;20115;-70
2022/08/22 03:07:20;;;;;;;0.03;0.03;;;;;;;14.79;100.00;101531.72;5025408;28;20033;-70
2022/08/22 03:09:47;;;;;;;0.00;0.00;;;;;;;14.85;100.00;101525.75;5033991;28;20108;-70
2022/08/22 03:12:19;;;;;;;0.00;0.00;;;;;;;14.87;100.00;101522.94;5019363;28;20411;-70
2022/08/22 03:15:07;;;;;;;0.10;0.10;;;;;;;14.76;100.00;101504.06;5021324;28;20033;-70
2022/08/22 03:17:48;;;;;;;0.00;0.00;;;;;;;14.88;100.00;101521.06;5029982;28;20029;-70
2022/08/22 03:20:22;;;;;;;0.00;0.00;;;;;;;14.90;100.00;101519.97;5031365;28;20043;-70
2022/08/22 03:22:59;;;;;;;0.00;0.00;;;;;;;14.92;100.00;101519.81;5020940;28;20026;-70
2022/08/22 03:25:49;;;;;;;0.00;0.00;;;;;;;14.92;100.00;101525.22;5026870;28;20123;-70
2022/08/22 03:28:21;;;;;;;0.10;0.10;;;;;;;14.91;100.00;101521.69;5022463;28;20025;-70
2022/08/22 03:31:15;;;;;;;0.00;0.00;;;;;;;15.00;100.00;101520.88;5026987;28;20017;-70
2022/08/22 03:33:41;;;;;;;0.00;0.00;;;;;;;14.98;100.00;101524.72;5023669;28;20495;-70
2022/08/22 03:36:12;;;;;;;0.00;0.00;;;;;;;14.93;100.00;101519.72;5028785;28;20129;-70
2022/08/22 03:38:59;;;;;;;0.00;0.00;;;;;;;14.86;100.00;101521.22;5021642;28;20057;-70
2022/08/22 03:41:58;;;;;;;0.00;0.00;;;;;;;14.83;100.00;101524.19;5024591;28;20033;-70
2022/08/22 03:44:30;;;;;;;0.08;0.08;;;;;;;14.84;100.00;101521.34;5024500;28;20021;-70
2022/08/22 03:47:08;;;;;;;0.00;0.00;;;;;;;14.83;100.00;101518.78;5027528;28;20395;-70
2022/08/22 03:49:51;;;;;;;0.00;0.00;;;;;;;14.85;100.00;101522.19;5024583;28;20029;-70
2022/08/22 03:53:06;;;;;;;0.00;0.00;;;;;;;14.80;100.00;101513.63;5020718;28;20104;-70
2022/08/22 03:55:50;;;;;;;0.03;0.03;;;;;;;14.78;100.00;101511.06;5021354;28;20045;-70
2022/08/22 03:58:27;;;;;;;0.00;0.00;;;;;;;14.79;100.00;101515.47;5020134;28;20112;-70
2022/08/22 04:01:18;;;;;;;0.03;0.03;;;;;;;14.78;100.00;101516.47;5028413;28;20040;-70
2022/08/22 04:04:07;;;;;;;0.00;0.00;;;;;;;14.78;100.00;101512.91;5023886;28;20029;-68
2022/08/22 04:06:51;;;;;;;0.00;0.00;;;;;;;14.80;100.00;101511.78;5021108;28;20021;-68
2022/08/22 04:09:34;;;;;;;;;;;;;;;14.75;100.00;101511.31;5026571;28;20029;-68
2022/08/22 04:12:30;;;;;;;0.00;0.00;;;;;;;14.77;100.00;101508.47;5025747;28;19912;-68
2022/08/22 04:15:17;;;;;;;0.10;0.10;;;;;;;14.80;100.00;101511.78;5026253;28;20277;-68
2022/08/22 04:17:57;;;;;;;0.10;0.10;;;;;;;14.82;100.00;101514.34;5027448;28;20033;-69
2022/08/22 04:20:46;;;;;;;0.00;0.00;;;;;;;14.70;99.97;101510.84;5020551;28;20067;-69
2022/08/22 04:23:14;;;;;;;0.00;0.00;;;;;;;14.63;100.00;101513.19;5018650;28;20480;-69
2022/08/22 04:25:43;;;;;;;0.05;0.05;;;;;;;14.59;100.00;101514.44;5017221;28;20021;-69
2022/08/22 04:28:14;;;;;;;0.10;0.10;;;;;;;14.60;100.00;101526.97;5020799;28;20017;-69
2022/08/22 04:30:43;;;;;;;0.00;0.00;;;;;;;14.34;99.52;101499.41;5017853;28;20025;-69
2022/08/22 04:33:15;;;;;;;0.10;0.10;;;;;;;14.34;99.94;101526.41;5020687;28;20177;-69
2022/08/22 04:35:45;;;;;;;0.10;0.10;;;;;;;14.23;100.00;101528.19;5034832;28;20030;-69
2022/08/22 04:38:23;;;;;;;0.00;0.00;;;;;;;14.19;100.00;101532.13;5018326;28;20468;-69
2022/08/22 04:40:54;;;;;;;0.00;0.00;;;;;;;13.99;100.00;101511.31;5018074;28;20041;-69
2022/08/22 04:43:28;;;;;;;0.00;0.00;;;;;;;14.05;100.00;101529.69;5014001;28;20025;-69
2022/08/22 04:46:00;;;;;;;0.10;0.10;;;;;;;14.00;100.00;101521.13;5014198;28;20037;-69
2022/08/22 04:48:51;;;;;;;0.00;0.00;;;;;;;13.99;100.00;101530.22;5013689;28;21481;-69
2022/08/22 04:51:25;;;;;;;0.10;0.10;;;;;;;13.93;100.00;101526.13;5022036;28;20495;-72
2022/08/22 04:53:58;;;;;;;0.00;0.00;;;;;;;13.82;100.00;101526.16;5020775;28;20144;-75
2022/08/22 04:56:36;;;;;;;0.10;0.10;;;;;;;13.54;100.00;101501.41;5016587;28;20049;-73
2022/08/22 04:59:15;;;;;;;0.05;0.05;;;;;;;13.64;100.00;101515.84;5015988;28;20144;-71
2022/08/22 05:02:08;;;;;;;0.10;0.10;;;;;;;13.70;100.00;101519.94;5017737;28;20033;-70
2022/08/22 05:04:44;;;;;;;0.05;0.05;;;;;;;13.65;100.00;101522.97;5016798;28;20194;-71
2022/08/22 05:07:11;;;;;;;0.00;0.00;;;;;;;13.59;100.00;101529.72;5017574;28;20018;-70
2022/08/22 05:09:44;;;;;;;0.10;0.10;;;;;;;13.61;100.00;101538.56;5015211;28;20033;-71
2022/08/22 05:12:13;;;;;;;0.03;0.03;;;;;;;13.54;100.00;101526.53;5012562;28;20113;-70
2022/08/22 05:14:45;;;;;;;0.10;0.10;;;;;;;13.60;100.00;101519.81;5013095;28;20033;-71
2022/08/22 05:17:14;;;;;;;0.00;0.00;;;;;;;13.84;100.00;101541.25;5020968;28;20412;-71
2022/08/22 05:19:43;;;;;;;0.10;0.10;;;;;;;13.86;100.00;101531.19;5020553;28;20112;-71
2022/08/22 05:22:18;;;;;;;0.10;0.10;;;;;;;14.03;100.00;101553.28;5019376;28;20025;-70
2022/08/22 05:24:47;;;;;;;0.00;0.00;;;;;;;14.00;100.00;101531.94;5010734;28;20029;-71
2022/08/22 05:27:23;;;;;;;0.10;0.10;;;;;;;14.26;100.00;101545.97;5015101;28;20059;-71
2022/08/22 05:29:52;;;;;;;0.10;0.10;;;;;;;14.34;100.00;101535.41;5017699;28;20034;-71
2022/08/22 05:32:27;;;;;;;0.00;0.00;;;;;;;14.51;100.00;101549.34;5012926;28;20419;-71
2022/08/22 05:34:57;;;;;;;0.08;0.08;;;;;;;14.63;100.00;101553.72;5019355;28;20326;-70
2022/08/22 05:37:28;;;;;;;0.10;0.10;;;;;;;14.70;100.00;101560.34;5017472;28;20099;-71
2022/08/22 05:39:56;;;;;;;0.10;0.10;;;;;;;14.82;100.00;101557.59;5016301;28;20029;-70
2022/08/22 05:42:28;;;;;;;0.00;0.00;;;;;;;14.96;100.00;101557.28;5019377;28;20124;-71
2022/08/22 05:44:54;;;;;;;0.00;0.00;;;;;;;15.04;100.00;101559.34;5018851;28;20037;-72
2022/08/22 05:47:38;;;;;;;0.10;0.10;;;;;;;15.12;100.00;101566.81;5014685;28;20029;-72
2022/08/22 05:50:04;;;;;;;;;;;;;;;15.20;100.00;101571.53;5012359;28;20029;-72
2022/08/22 05:52:38;;;;;;;0.10;0.10;;;;;;;15.35;100.00;101563.94;5019125;28;20268;-72
2022/08/22 05:55:07;;;;;;;0.10;0.10;;;;;;;15.50;100.00;101567.16;5017449;28;20084;-72
2022/08/22 05:57:37;;;;;;;0.10;0.10;;;;;;;15.48;100.00;101540.25;5020951;28;20607;-72
2022/08/22 06:00:09;;;;;;;0.10;0.10;;;;;;;15.74;100.00;101562.31;5020475;28;20022;-72
2022/08/22 06:02:48;;;;;;;0.00;0.00;;;;;;;15.65;100.00;101519.78;5017163;28;20064;-72
2022/08/22 06:05:24;;;;;;;0.10;0.10;;;;;;;15.93;100.00;101557.97;5015206;28;20389;-73
2022/08/22 06:07:54;;;;;;;0.00;0.00;;;;;;;16.06;100.00;101555.03;5026346;28;20033;-73
2022/08/22 06:10:30;;;;;;;0.00;0.00;;;;;;;16.18;100.00;101553.94;5021467;28;20037;-72
2022/08/22 06:13:12;;;;;;;0.10;0.10;;;;;;;16.23;100.00;101556.22;5024433;28;20036;-72
2022/08/22 06:16:02;;;;;;;0.10;0.10;;;;;;;16.31;100.00;101558.22;5015800;28;20377;-72
2022/08/22 06:18:28;;;;;;;0.10;0.10;;;;;;;16.37;100.00;101552.25;5023002;28;20083;-72
2022/08/22 06:20:57;;;;;;;0.00;0.00;;;;;;;16.50;100.00;101557.41;5023981;28;20658;-72
2022/08/22 06:23:40;;;;;;;0.00;0.00;;;;;;;16.59;100.00;101566.53;5022272;28;20136;-72
2022/08/22 06:26:07;;;;;;;0.00;0.00;;;;;;;16.72;100.00;101563.53;5021461;28;20344;-72
2022/08/22 06:28:37;;;;;;;0.10;0.10;;;;;;;16.84;100.00;101577.81;5028772;28;20444;-72
2022/08/22 06:31:03;;;;;;;0.05;0.05;;;;;;;16.98;100.00;101563.88;5014699;28;20026;-72
2022/08/22 06:33:32;;;;;;;0.00;0.00;;;;;;;17.11;100.00;101563.56;5018967;28;20053;-72
2022/08/22 06:39:39;;;;;;;0.08;0.08;;;;;;;17.33;100.00;101575.97;5025254;28;20099;-70
2022/08/22 06:42:08;;;;;;;0.10;0.10;;;;;;;17.42;100.00;101579.66;5007779;28;20042;-72
2022/08/22 06:44:37;;;;;;;0.00;0.00;;;;;;;17.52;100.00;101585.06;5025356;28;20188;-71
2022/08/22 06:47:05;;;;;;;0.00;0.00;;;;;;;17.63;100.00;101581.28;5029068;28;20061;-71
2022/08/22 06:49:33;;;;;;;0.03;0.03;;;;;;;17.68;100.00;101585.28;5028706;28;20044;-71
2022/08/22 06:52:01;;;;;;;0.10;0.10;;;;;;;17.76;100.00;101579.09;5025637;28;20388;-72
2022/08/22 06:54:30;;;;;;;0.00;0.00;;;;;;;17.97;100.00;101592.44;5023452;28;20025;-71
2022/08/22 06:56:55;;;;;;;0.08;0.08;;;;;;;18.09;99.71;101592.31;5028437;28;20031;-72
2022/08/22 06:59:34;;;;;;;0.10;0.10;;;;;;;18.18;98.93;101594.09;5024502;28;20030;-72
2022/08/22 07:02:16;;;;;;;0.00;0.00;;;;;;;18.30;98.25;101589.31;5021704;28;20039;-72
2022/08/22 07:04:42;;;;;;;0.10;0.10;;;;;;;18.44;97.85;101596.97;5022442;28;20028;-72
2022/08/22 07:07:07;;;;;;;0.03;0.03;;;;;;;18.54;96.37;101596.88;5028343;28;20033;-71
2022/08/22 07:09:34;;;;;;;0.00;0.00;;;;;;;18.69;96.02;101602.66;5026877;28;20021;-72
2022/08/22 07:12:02;;;;;;;0.00;0.00;;;;;;;18.67;96.35;101574.75;5024243;28;20043;-72
2022/08/22 07:14:32;;;;;;;0.03;0.03;;;;;;;18.88;95.96;101596.22;5021137;28;20053;-72
2022/08/22 07:17:03;;;;;;;0.05;0.05;;;;;;;18.97;95.35;101596.28;5024992;28;20041;-72
2022/08/22 07:19:54;;;;;;;0.10;0.10;;;;;;;19.09;93.34;101607.78;5023917;28;20261;-72
2022/08/22 07:22:29;;;;;;;0.00;0.00;;;;;;;19.17;93.04;101600.56;5022924;28;20217;-72
2022/08/22 07:25:01;;;;;;;0.08;0.08;;;;;;;19.29;93.67;101603.88;5021783;28;20034;-72
2022/08/22 07:27:39;;;;;;;0.10;0.10;;;;;;;19.36;92.55;101595.94;5025213;28;20079;-72
2022/08/22 07:30:16;;;;;;;0.00;0.00;;;;;;;19.41;91.46;101599.03;5022205;28;20025;-72
2022/08/22 07:33:00;;;;;;;0.05;0.05;;;;;;;19.51;92.40;101592.63;5020873;28;20381;-71
2022/08/22 07:35:40;;;;;;;0.00;0.00;;;;;;;19.60;91.06;101591.66;5017084;28;20123;-71
2022/08/22 07:38:21;;;;;;;0.08;0.00;;;;;;;19.73;91.49;101592.06;5026583;28;20041;-71
2022/08/22 07:40:59;;;;;;;0.00;0.00;;;;;;;19.88;90.56;101589.63;5024086;28;20025;-71
2022/08/22 07:43:36;;;;;;;0.00;0.00;;;;;;;19.91;88.27;101589.28;5025296;28;20044;-70
2022/08/22 07:46:38;;;;;;;0.00;0.00;;;;;;;19.86;84.31;101594.38;5019180;28;20030;-71
2022/08/22 07:49:29;;;;;;;0.10;0.10;;;;;;;19.68;85.92;101550.00;5040141;28;20033;-70
2022/08/22 07:51:59;;;;;;;0.10;0.10;;;;;;;19.87;85.21;101579.69;5021026;28;20037;-70
2022/08/22 07:54:34;;;;;;;0.05;0.05;;;;;;;19.96;85.79;101585.22;5022477;28;20033;-70
2022/08/22 07:57:10;;;;;;;0.10;0.10;;;;;;;19.86;87.08;101558.09;5025013;28;20111;-70
2022/08/22 07:59:37;;;;;;;0.00;0.00;;;;;;;20.16;86.35;101583.94;5025569;28;20080;-70
2022/08/22 08:02:07;;;;;;;0.00;0.00;;;;;;;20.20;84.37;101574.41;5019768;28;20032;-70
2022/08/22 08:04:34;;;;;;;0.00;0.00;;;;;;;20.31;84.97;101584.16;5024439;28;20471;-69
2022/08/22 08:07:01;;;;;;;0.00;0.00;;;;;;;20.34;83.72;101578.38;5021622;28;20121;-71
2022/08/22 08:09:32;;;;;;;0.00;0.00;;;;;;;20.31;84.17;101559.63;5026273;28;20079;-69
2022/08/22 08:11:59;;;;;;;0.00;0.00;;;;;;;20.49;83.86;101572.31;5027472;28;20025;-71
2022/08/22 08:14:25;;;;;;;0.00;0.00;;;;;;;20.51;83.31;101575.72;5021223;28;20037;-71
2022/08/22 08:16:55;;;;;;;0.10;0.10;;;;;;;20.58;83.41;101574.00;5023424;28;20039;-71
2022/08/22 08:19:21;;;;;;;0.00;0.00;;;;;;;20.67;83.15;101569.41;5025668;28;20037;-70
2022/08/22 08:21:53;;;;;;;0.00;0.00;;;;;;;20.89;82.86;101569.81;5023528;28;20033;-71
2022/08/22 08:24:23;;;;;;;0.00;0.00;;;;;;;21.09;81.63;101565.72;5022649;28;20090;-70
2022/08/22 08:29:38;;;;;;;0.00;0.00;;;;;;;21.53;80.73;101552.66;5025378;28;20041;-69
2022/08/22 08:32:08;;;;;;;0.00;0.00;;;;;;;21.55;80.48;101534.22;5021839;28;20036;-69
2022/08/22 08:34:33;;;;;;;0.10;0.00;;;;;;;21.75;78.41;101556.56;5021965;28;20518;-70
2022/08/22 08:37:03;;;;;;;0.10;0.00;;;;;;;21.68;77.53;101552.81;5026081;28;20041;-70
2022/08/22 08:39:38;;;;;;;0.00;0.00;;;;;;;21.61;76.61;101555.41;5026598;28;20067;-70
2022/08/22 08:45:58;;;;;;;0.00;0.00;;;;;;;21.84;73.60;101554.63;5023936;28;20494;-71
2022/08/22 08:48:57;;;;;;;0.00;0.00;;;;;;;22.02;75.71;101557.13;5025172;28;20040;-69
2022/08/22 08:51:33;;;;;;;0.00;0.00;;;;;;;22.14;73.30;101555.69;5022130;28;20460;-70
2022/08/22 08:54:13;;;;;;;0.00;0.00;;;;;;;22.35;73.46;101556.09;5024172;28;20443;-70
2022/08/22 08:56:58;;;;;;;0.00;0.00;;;;;;;22.52;73.59;101551.41;5021226;28;20030;-70
2022/08/22 08:59:52;;;;;;;0.00;0.00;;;;;;;22.82;71.18;101554.25;5026253;28;20025;-70
2022/08/22 09:02:47;;;;;;;0.00;0.00;;;;;;;22.97;68.55;101548.84;5023025;28;20036;-69
2022/08/22 09:06:04;;;;;;;0.00;0.00;;;;;;;23.11;70.49;101536.22;5019707;28;20115;-70
2022/08/22 09:08:35;;;;;;;0.00;0.00;;;;;;;23.30;70.03;101541.19;4982321;28;20473;-71
2022/08/22 09:11:38;;;;;;;0.00;0.00;;;;;;;23.35;69.32;101537.88;4982745;28;20054;-69
2022/08/22 09:14:15;;;;;;;0.00;0.00;;;;;;;23.59;65.84;101544.97;5014139;28;20037;-70
2022/08/22 09:17:06;;;;;;;0.00;0.00;;;;;;;23.01;64.00;101539.22;5023434;28;20496;-69
2022/08/22 09:19:50;;;;;;;0.00;0.00;;;;;;;23.34;65.35;101536.16;5026682;28;20033;-71
2022/08/22 09:22:30;;;;;;;0.00;0.00;;;;;;;23.46;65.88;101531.94;5019886;28;20047;-70
2022/08/22 09:24:58;;;;;;;0.00;0.00;;;;;;;23.53;64.31;101537.50;5021185;28;20056;-70
2022/08/22 09:27:34;;;;;;;0.10;0.10;;;;;;;23.66;66.76;101532.22;5024540;28;20118;-71
2022/08/22 09:30:08;;;;;;;0.00;0.00;;;;;;;23.99;66.42;101535.59;5020403;28;20040;-70
2022/08/22 09:32:48;;;;;;;0.00;0.00;;;;;;;23.84;60.09;101500.81;5023503;28;20033;-70
2022/08/22 09:35:54;;;;;;;0.00;0.00;;;;;;;23.90;60.54;101532.09;5024268;28;20075;-72
2022/08/22 09:38:34;;;;;;;0.10;0.10;;;;;;;24.01;60.23;101528.91;5016696;28;20526;-70
2022/08/22 09:41:13;;;;;;;0.00;0.00;;;;;;;24.33;60.10;101531.34;5019060;28;20736;-70
2022/08/22 09:43:47;;;;;;;0.00;0.00;;;;;;;24.56;58.84;101529.28;5023116;28;20463;-71
2022/08/22 09:46:17;;;;;;;0.00;0.00;;;;;;;24.67;58.01;101525.16;5023276;28;20030;-72
2022/08/22 09:49:12;;;;;;;0.00;0.00;;;;;;;24.75;54.90;101526.09;5025508;28;20052;-71
2022/08/22 09:51:54;;;;;;;0.10;0.10;;;;;;;24.56;52.93;101528.44;5019590;28;20037;-71
2022/08/22 09:54:37;;;;;;;0.00;0.00;;;;;;;24.26;56.24;101526.63;5022705;28;20546;-71
2022/08/22 09:57:25;;;;;;;0.00;0.00;;;;;;;24.25;53.78;101519.44;5020964;28;20313;-72
2022/08/22 10:00:05;;;;;;;0.00;0.00;;;;;;;24.05;56.42;101521.97;5021175;28;20034;-71
2022/08/22 10:02:42;;;;;;;0.00;0.00;;;;;;;23.59;53.83;101522.19;5021315;28;21159;-72
2022/08/22 10:05:12;;;;;;;0.00;0.00;;;;;;;23.98;55.92;101518.31;5025391;28;20091;-72
2022/08/22 10:08:16;;;;;;;0.00;0.00;;;;;;;24.08;56.03;101520.75;5000922;28;20261;-70
2022/08/22 10:10:56;;;;;;;0.00;0.00;;;;;;;24.33;54.12;101515.75;5021722;28;20022;-70
2022/08/22 10:13:32;;;;;;;0.00;0.00;;;;;;;24.46;55.07;101512.28;5022970;28;20369;-69
2022/08/22 10:16:02;;;;;;;0.00;0.00;;;;;;;24.69;55.66;101516.72;5025966;28;20093;-71
2022/08/22 10:18:46;;;;;;;0.00;0.00;;;;;;;24.32;52.64;101515.94;5025100;28;20048;-72
2022/08/22 10:21:42;;;;;;;0.00;0.00;;;;;;;24.32;54.34;101499.47;5019339;28;20036;-72
2022/08/22 10:24:22;;;;;;;0.03;0.03;;;;;;;24.66;50.06;101506.97;5024137;28;20105;-72
2022/08/22 10:26:49;;;;;;;0.00;0.00;;;;;;;24.53;50.79;101510.44;5018910;28;20033;-71
2022/08/22 10:29:37;;;;;;;0.00;0.00;;;;;;;24.67;51.28;101481.22;5024152;28;20361;-71
2022/08/22 10:32:35;;;;;;;0.00;0.00;;;;;;;24.70;49.88;101496.47;5020371;28;20119;-70
2022/08/22 10:35:23;;;;;;;0.05;0.05;;;;;;;24.92;49.03;101496.47;5010284;28;20460;-71
2022/08/22 10:38:13;;;;;;;0.00;0.00;;;;;;;24.77;46.82;101474.59;5021921;28;20129;-71
2022/08/22 10:40:45;;;;;;;0.00;0.00;;;;;;;24.98;47.58;101488.25;5020623;28;20457;-72
2022/08/22 10:43:20;;;;;;;0.00;0.00;;;;;;;24.96;45.03;101486.78;5019756;28;20106;-69
2022/08/22 10:45:51;;;;;;;0.00;0.00;;;;;;;25.24;47.66;101494.16;5029573;28;20028;-71
2022/08/22 10:48:24;;;;;;;0.00;0.00;;;;;;;25.44;48.06;101497.03;5026358;28;20032;-71
2022/08/22 10:50:54;;;;;;;0.00;0.00;;;;;;;25.45;48.77;101493.25;5023392;28;20128;-69
2022/08/22 10:53:52;;;;;;;0.00;0.00;;;;;;;25.41;46.90;101486.44;5020982;28;20033;-68
2022/08/22 10:56:31;;;;;;;0.00;0.00;;;;;;;25.29;51.45;101486.16;5024563;28;20400;-73
2022/08/22 10:59:22;;;;;;;0.00;0.00;;;;;;;25.52;48.60;101487.81;5020814;28;20030;-71
2022/08/22 11:01:58;;;;;;;0.00;0.00;;;;;;;25.69;48.61;101485.56;5026526;28;20029;-72
2022/08/22 11:04:51;;;;;;;0.00;0.00;;;;;;;25.70;48.03;101476.22;5025650;28;20025;-72
2022/08/22 11:07:48;;;;;;;0.00;0.00;;;;;;;26.02;44.63;101487.56;5028145;28;20436;-68
2022/08/22 11:10:39;;;;;;;0.00;0.00;;;;;;;26.04;44.93;101482.69;5027234;28;20021;-72
2022/08/22 11:13:20;;;;;;;0.00;0.00;;;;;;;26.65;45.66;101480.94;5012776;28;20053;-73
2022/08/22 11:16:03;;;;;;;0.00;0.00;;;;;;;26.94;43.20;101478.81;5019363;28;20036;-72
2022/08/22 11:18:50;;;;;;;0.00;0.00;;;;;;;26.60;43.99;101476.06;5025118;28;20607;-71
2022/08/22 11:21:27;;;;;;;0.00;0.00;;;;;;;27.14;44.14;101466.91;5022396;28;20041;-69
2022/08/22 11:24:31;;;;;;;0.00;0.00;;;;;;;27.67;43.31;101471.47;5019962;28;20476;-69
2022/08/22 11:27:10;;;;;;;0.00;0.00;;;;;;;27.49;40.65;101441.84;5020338;28;20049;-70
2022/08/22 11:29:50;;;;;;;0.00;0.00;;;;;;;26.82;45.32;101466.75;5025441;28;20049;-71
2022/08/22 11:32:33;;;;;;;0.00;0.00;;;;;;;27.07;42.92;101477.97;5017843;28;20025;-69
2022/08/22 11:35:24;;;;;;;0.00;0.00;;;;;;;27.32;40.92;101463.50;5020071;28;20037;-70
2022/08/22 11:37:56;;;;;;;0.00;0.00;;;;;;;26.59;40.82;101468.84;5009083;28;20339;-68
2022/08/22 11:40:37;;;;;;;0.00;0.00;;;;;;;26.56;42.66;101468.41;5027138;28;20033;-72
2022/08/22 11:43:17;;;;;;;0.00;0.00;;;;;;;26.68;41.23;101465.88;5018535;28;20040;-71
2022/08/22 11:45:47;;;;;;;0.00;0.00;;;;;;;26.04;42.16;101458.81;5022500;28;20033;-68
2022/08/22 11:48:40;;;;;;;0.00;0.00;;;;;;;26.68;42.71;101454.84;5025611;28;20326;-71
2022/08/22 11:51:43;;;;;;;0.00;0.00;;;;;;;26.81;42.70;101457.66;5021868;28;20034;-72
2022/08/22 11:54:37;;;;;;;0.00;0.00;;;;;;;26.41;41.07;101441.09;5025107;28;20132;-69
2022/08/22 11:57:09;;;;;;;0.00;0.00;;;;;;;26.68;42.62;101463.13;5023904;28;20025;-71
2022/08/22 11:59:55;;;;;;;0.00;0.00;;;;;;;26.62;44.60;101454.63;5026334;28;20033;-71
2022/08/22 12:02:29;;;;;;;0.00;0.00;;;;;;;27.20;42.40;101447.59;5024735;28;20487;-72
2022/08/22 12:04:58;;;;;;;0.00;0.00;;;;;;;27.33;42.35;101443.13;5024645;28;20045;-72
2022/08/22 12:07:30;;;;;;;0.00;0.00;;;;;;;27.53;41.26;101451.38;5025251;28;20117;-72
2022/08/22 12:10:03;;;;;;;0.00;0.00;;;;;;;27.52;40.16;101450.50;5027102;28;20029;-69
2022/08/22 12:12:49;;;;;;;0.00;0.00;;;;;;;27.60;41.65;101445.81;5021198;28;20029;-73
2022/08/22 12:15:23;;;;;;;0.00;0.00;;;;;;;27.76;41.48;101442.53;5023432;28;20244;-72
2022/08/22 12:18:16;;;;;;;0.00;0.00;;;;;;;27.79;40.94;101446.78;5041152;28;20053;-72
2022/08/22 12:20:58;;;;;;;0.00;0.00;;;;;;;27.25;38.85;101442.28;5020969;28;20079;-71
2022/08/22 12:23:32;;;;;;;0.00;0.00;;;;;;;27.18;41.25;101441.47;5022461;28;20033;-72
2022/08/22 12:26:19;;;;;;;0.00;0.00;;;;;;;27.15;40.69;101441.06;5021872;28;20068;-71
2022/08/22 12:29:00;;;;;;;0.00;0.00;;;;;;;26.90;39.96;101448.09;5016991;28;20029;-71